sensor_id;sensor_type;location;lat;lon;timestamp;pressure;altitude;pressure_sealevel;temperature;humidity
59435;BME280;45241;49.768;8.636;2023-02-17T00:00:10;100951.06;;;11.91;70.88
59435;BME280;45241;49.768;8.636;2023-02-17T00:02:36;100959.03;;;11.99;70.68
59435;BME280;45241;49.768;8.636;2023-02-17T00:05:03;100948.59;;;12.04;70.45
59435;BME280;45241;49.768;8.636;2023-02-17T00:07:31;100959.78;;;11.93;71.51
59435;BME280;45241;49.768;8.636;2023-02-17T00:09:57;100943.75;;;11.99;70.67
59435;BME280;45241;49.768;8.636;2023-02-17T00:12:23;100945.53;;;11.92;71.22
59435;BME280;45241;49.768;8.636;2023-02-17T00:14:48;100937.28;;;11.94;71.57
59435;BME280;45241;49.768;8.636;2023-02-17T00:17:13;100949.03;;;11.93;71.58
59435;BME280;45241;49.768;8.636;2023-02-17T00:19:38;100948.22;;;11.92;71.58
59435;BME280;45241;49.768;8.636;2023-02-17T00:22:04;100943.75;;;11.99;71.36
59435;BME280;45241;49.768;8.636;2023-02-17T00:24:30;100950.78;;;11.86;72.60
59435;BME280;45241;49.768;8.636;2023-02-17T00:26:56;100952.56;;;11.93;73.00
59435;BME280;45241;49.768;8.636;2023-02-17T00:29:21;100951.41;;;11.88;72.77
59435;BME280;45241;49.768;8.636;2023-02-17T00:31:47;100951.59;;;11.86;74.13
59435;BME280;45241;49.768;8.636;2023-02-17T00:34:12;100954.47;;;11.85;74.42
59435;BME280;45241;49.768;8.636;2023-02-17T00:36:38;100945.19;;;11.72;75.96
59435;BME280;45241;49.768;8.636;2023-02-17T00:39:04;100950.94;;;11.69;75.34
59435;BME280;45241;49.768;8.636;2023-02-17T00:41:30;100949.84;;;11.79;74.77
59435;BME280;45241;49.768;8.636;2023-02-17T00:43:56;100943.78;;;11.77;75.41
59435;BME280;45241;49.768;8.636;2023-02-17T00:46:22;100943.16;;;11.74;74.45
59435;BME280;45241;49.768;8.636;2023-02-17T00:48:47;100943.78;;;11.77;74.43
59435;BME280;45241;49.768;8.636;2023-02-17T00:51:14;100947.88;;;11.72;74.69
59435;BME280;45241;49.768;8.636;2023-02-17T00:53:40;100944.47;;;11.79;74.74
59435;BME280;45241;49.768;8.636;2023-02-17T00:56:06;100947.81;;;11.81;73.83
59435;BME280;45241;49.768;8.636;2023-02-17T00:58:32;100949.84;;;11.79;74.03
59435;BME280;45241;49.768;8.636;2023-02-17T01:00:57;100951.56;;;11.71;74.12
59435;BME280;45241;49.768;8.636;2023-02-17T01:03:24;100946.56;;;11.68;74.55
59435;BME280;45241;49.768;8.636;2023-02-17T01:05:49;100951.56;;;11.71;74.44
59435;BME280;45241;49.768;8.636;2023-02-17T01:08:16;100940.47;;;11.74;74.63
59435;BME280;45241;49.768;8.636;2023-02-17T01:10:43;100949.63;;;11.65;75.55
59435;BME280;45241;49.768;8.636;2023-02-17T01:13:10;100940.19;;;11.69;75.74
59435;BME280;45241;49.768;8.636;2023-02-17T01:15:40;100945.25;;;11.64;76.19
59435;BME280;45241;49.768;8.636;2023-02-17T01:18:06;100951.94;;;11.68;76.13
59435;BME280;45241;49.768;8.636;2023-02-17T01:20:35;100945.56;;;11.69;76.64
59435;BME280;45241;49.768;8.636;2023-02-17T01:23:01;100945.97;;;11.58;77.75
59435;BME280;45241;49.768;8.636;2023-02-17T01:25:26;100954.22;;;11.57;77.80
59435;BME280;45241;49.768;8.636;2023-02-17T01:27:51;100952.13;;;11.67;77.32
59435;BME280;45241;49.768;8.636;2023-02-17T01:30:17;100950.09;;;11.69;77.50
59435;BME280;45241;49.768;8.636;2023-02-17T01:32:42;100952.38;;;11.57;77.56
59435;BME280;45241;49.768;8.636;2023-02-17T01:35:07;100953.66;;;11.61;77.60
59435;BME280;45241;49.768;8.636;2023-02-17T01:37:33;100958.03;;;11.62;78.13
59435;BME280;45241;49.768;8.636;2023-02-17T01:39:58;100956.66;;;11.66;78.21
59435;BME280;45241;49.768;8.636;2023-02-17T01:42:24;100950.34;;;11.59;78.73
59435;BME280;45241;49.768;8.636;2023-02-17T01:47:45;100955.00;;;11.65;77.93
59435;BME280;45241;49.768;8.636;2023-02-17T01:50:12;100957.50;;;11.67;78.30
59435;BME280;45241;49.768;8.636;2023-02-17T01:52:38;100952.97;;;11.67;78.11
59435;BME280;45241;49.768;8.636;2023-02-17T01:55:07;100943.66;;;11.55;79.12
59435;BME280;45241;49.768;8.636;2023-02-17T01:57:38;100939.59;;;11.59;78.85
59435;BME280;45241;49.768;8.636;2023-02-17T02:00:07;100941.91;;;11.62;78.46
59435;BME280;45241;49.768;8.636;2023-02-17T02:02:32;100932.91;;;11.55;78.66
59435;BME280;45241;49.768;8.636;2023-02-17T02:04:59;100937.28;;;11.56;79.00
59435;BME280;45241;49.768;8.636;2023-02-17T02:07:29;100934.59;;;11.56;78.98
59435;BME280;45241;49.768;8.636;2023-02-17T02:09:57;100932.97;;;11.47;79.30
59435;BME280;45241;49.768;8.636;2023-02-17T02:12:28;100920.19;;;11.49;79.75
59435;BME280;45241;49.768;8.636;2023-02-17T02:14:57;100918.91;;;11.45;79.64
59435;BME280;45241;49.768;8.636;2023-02-17T02:33:56;100889.38;;;11.45;81.04
59435;BME280;45241;49.768;8.636;2023-02-17T02:36:45;100877.38;;;11.56;80.97
59435;BME280;45241;49.768;8.636;2023-02-17T02:39:15;100879.22;;;11.55;81.01
59435;BME280;45241;49.768;8.636;2023-02-17T02:41:44;100874.09;;;11.46;81.26
59435;BME280;45241;49.768;8.636;2023-02-17T02:44:13;100863.16;;;11.47;81.78
59435;BME280;45241;49.768;8.636;2023-02-17T02:46:39;100860.94;;;11.51;81.86
59435;BME280;45241;49.768;8.636;2023-02-17T02:49:04;100866.81;;;11.54;82.07
59435;BME280;45241;49.768;8.636;2023-02-17T02:57:18;100854.75;;;11.50;82.87
59435;BME280;45241;49.768;8.636;2023-02-17T03:02:48;100850.56;;;11.33;84.07
59435;BME280;45241;49.768;8.636;2023-02-17T03:05:30;100852.38;;;11.55;83.24
59435;BME280;45241;49.768;8.636;2023-02-17T03:08:11;100845.84;;;11.50;83.17
59435;BME280;45241;49.768;8.636;2023-02-17T03:10:46;100843.28;;;11.41;84.41
59435;BME280;45241;49.768;8.636;2023-02-17T03:13:12;100836.56;;;11.37;84.16
59435;BME280;45241;49.768;8.636;2023-02-17T03:15:37;100835.03;;;11.43;84.05
59435;BME280;45241;49.768;8.636;2023-02-17T03:18:03;100832.44;;;11.50;84.20
59435;BME280;45241;49.768;8.636;2023-02-17T03:20:38;100834.22;;;11.57;83.85
59435;BME280;45241;49.768;8.636;2023-02-17T03:23:07;100837.53;;;11.44;84.78
59435;BME280;45241;49.768;8.636;2023-02-17T03:25:33;100836.13;;;11.49;84.95
59435;BME280;45241;49.768;8.636;2023-02-17T03:27:58;100824.69;;;11.55;84.39
59435;BME280;45241;49.768;8.636;2023-02-17T03:30:24;100839.47;;;11.51;84.19
59435;BME280;45241;49.768;8.636;2023-02-17T03:32:49;100832.94;;;11.53;84.35
59435;BME280;45241;49.768;8.636;2023-02-17T03:35:14;100837.81;;;11.50;83.92
59435;BME280;45241;49.768;8.636;2023-02-17T03:37:40;100832.25;;;11.51;84.16
59435;BME280;45241;49.768;8.636;2023-02-17T03:40:07;100836.53;;;11.60;83.95
59435;BME280;45241;49.768;8.636;2023-02-17T03:42:33;100842.34;;;11.49;84.45
59435;BME280;45241;49.768;8.636;2023-02-17T03:44:58;100839.00;;;11.47;84.86
59435;BME280;45241;49.768;8.636;2023-02-17T03:47:24;100832.56;;;11.56;84.17
59435;BME280;45241;49.768;8.636;2023-02-17T03:49:50;100836.88;;;11.42;84.89
59435;BME280;45241;49.768;8.636;2023-02-17T03:52:15;100844.50;;;11.54;84.71
59435;BME280;45241;49.768;8.636;2023-02-17T03:54:40;100843.72;;;11.45;84.64
59435;BME280;45241;49.768;8.636;2023-02-17T03:57:06;100841.50;;;11.49;84.76
59435;BME280;45241;49.768;8.636;2023-02-17T03:59:31;100833.00;;;11.45;84.73
59435;BME280;45241;49.768;8.636;2023-02-17T04:01:56;100846.13;;;11.40;85.47
59435;BME280;45241;49.768;8.636;2023-02-17T04:04:22;100841.03;;;11.45;85.11
59435;BME280;45241;49.768;8.636;2023-02-17T04:06:47;100837.34;;;11.46;84.82
59435;BME280;45241;49.768;8.636;2023-02-17T04:09:12;100834.63;;;11.31;85.57
59435;BME280;45241;49.768;8.636;2023-02-17T04:11:38;100837.25;;;11.39;85.84
59435;BME280;45241;49.768;8.636;2023-02-17T04:14:03;100847.63;;;11.42;85.74
59435;BME280;45241;49.768;8.636;2023-02-17T04:16:28;100837.78;;;11.35;86.28
59435;BME280;45241;49.768;8.636;2023-02-17T04:18:54;100844.09;;;11.42;87.30
59435;BME280;45241;49.768;8.636;2023-02-17T04:21:19;100850.81;;;11.38;87.55
59435;BME280;45241;49.768;8.636;2023-02-17T04:23:44;100857.28;;;11.52;87.20
59435;BME280;45241;49.768;8.636;2023-02-17T04:26:10;100852.63;;;11.46;87.53
59435;BME280;45241;49.768;8.636;2023-02-17T04:28:39;100855.44;;;11.52;87.51
59435;BME280;45241;49.768;8.636;2023-02-17T04:31:05;100865.66;;;11.49;87.41
59435;BME280;45241;49.768;8.636;2023-02-17T04:33:31;100858.16;;;11.44;87.97
59435;BME280;45241;49.768;8.636;2023-02-17T04:35:57;100852.63;;;11.46;87.93
59435;BME280;45241;49.768;8.636;2023-02-17T04:38:27;100854.84;;;11.42;87.96
59435;BME280;45241;49.768;8.636;2023-02-17T04:40:54;100858.72;;;11.39;88.21
59435;BME280;45241;49.768;8.636;2023-02-17T04:43:21;100857.34;;;11.43;88.05
59435;BME280;45241;49.768;8.636;2023-02-17T04:45:46;100858.22;;;11.36;88.12
59435;BME280;45241;49.768;8.636;2023-02-17T04:48:11;100857.59;;;11.34;88.05
59435;BME280;45241;49.768;8.636;2023-02-17T04:50:37;100859.31;;;11.27;89.12
59435;BME280;45241;49.768;8.636;2023-02-17T04:53:02;100856.69;;;11.41;89.36
59435;BME280;45241;49.768;8.636;2023-02-17T04:55:27;100852.44;;;11.47;89.36
59435;BME280;45241;49.768;8.636;2023-02-17T04:57:54;100852.28;;;11.26;91.43
59435;BME280;45241;49.768;8.636;2023-02-17T05:00:19;100855.50;;;11.44;90.91
59435;BME280;45241;49.768;8.636;2023-02-17T05:02:45;100859.00;;;11.44;92.07
59435;BME280;45241;49.768;8.636;2023-02-17T05:05:10;100858.00;;;11.46;92.33
59435;BME280;45241;49.768;8.636;2023-02-17T05:07:40;100868.16;;;11.50;93.06
59435;BME280;45241;49.768;8.636;2023-02-17T05:10:06;100867.84;;;11.53;92.37
59435;BME280;45241;49.768;8.636;2023-02-17T05:12:31;100875.50;;;11.56;92.89
59435;BME280;45241;49.768;8.636;2023-02-17T05:14:56;100869.78;;;11.59;93.05
59435;BME280;45241;49.768;8.636;2023-02-17T05:17:21;100867.91;;;11.45;93.49
59435;BME280;45241;49.768;8.636;2023-02-17T05:19:47;100873.47;;;11.58;93.38
59435;BME280;45241;49.768;8.636;2023-02-17T05:22:12;100868.03;;;11.66;92.67
59435;BME280;45241;49.768;8.636;2023-02-17T05:24:37;100859.91;;;11.37;93.86
59435;BME280;45241;49.768;8.636;2023-02-17T05:27:03;100869.94;;;11.43;93.42
59435;BME280;45241;49.768;8.636;2023-02-17T05:29:28;100866.59;;;11.41;93.30
59435;BME280;45241;49.768;8.636;2023-02-17T05:31:53;100873.25;;;11.45;93.58
59435;BME280;45241;49.768;8.636;2023-02-17T05:34:18;100857.28;;;11.52;93.56
59435;BME280;45241;49.768;8.636;2023-02-17T05:36:44;100872.88;;;11.48;94.23
59435;BME280;45241;49.768;8.636;2023-02-17T05:39:09;100860.78;;;11.52;94.68
59435;BME280;45241;49.768;8.636;2023-02-17T05:41:34;100867.84;;;11.53;94.92
59435;BME280;45241;49.768;8.636;2023-02-17T05:44:00;100853.38;;;11.54;95.15
59435;BME280;45241;49.768;8.636;2023-02-17T05:46:25;100849.13;;;11.60;94.64
59435;BME280;45241;49.768;8.636;2023-02-17T05:48:50;100850.88;;;11.53;94.75
59435;BME280;45241;49.768;8.636;2023-02-17T05:51:16;100856.06;;;11.54;94.82
59435;BME280;45241;49.768;8.636;2023-02-17T05:53:42;100858.25;;;11.51;95.11
59435;BME280;45241;49.768;8.636;2023-02-17T05:56:08;100867.16;;;11.51;94.63
59435;BME280;45241;49.768;8.636;2023-02-17T05:58:33;100878.25;;;11.48;94.60
59435;BME280;45241;49.768;8.636;2023-02-17T06:00:58;100862.75;;;11.58;94.26
59435;BME280;45241;49.768;8.636;2023-02-17T06:03:24;100868.84;;;11.52;94.44
59435;BME280;45241;49.768;8.636;2023-02-17T06:05:49;100872.38;;;11.53;94.80
59435;BME280;45241;49.768;8.636;2023-02-17T06:08:14;100872.06;;;11.48;95.04
59435;BME280;45241;49.768;8.636;2023-02-17T06:10:40;100863.56;;;11.59;95.00
59435;BME280;45241;49.768;8.636;2023-02-17T06:13:06;100873.72;;;11.49;95.74
59435;BME280;45241;49.768;8.636;2023-02-17T06:15:31;100869.00;;;11.51;95.55
59435;BME280;45241;49.768;8.636;2023-02-17T06:17:57;100866.47;;;11.34;96.57
59435;BME280;45241;49.768;8.636;2023-02-17T06:20:23;100873.72;;;11.49;96.17
59435;BME280;45241;49.768;8.636;2023-02-17T06:22:48;100876.00;;;11.37;96.41
59435;BME280;45241;49.768;8.636;2023-02-17T06:25:13;100878.25;;;11.48;96.27
59435;BME280;45241;49.768;8.636;2023-02-17T06:27:39;100872.00;;;11.56;95.58
59435;BME280;45241;49.768;8.636;2023-02-17T06:30:06;100876.97;;;11.44;96.32
59435;BME280;45241;49.768;8.636;2023-02-17T06:32:32;100865.16;;;11.53;96.01
59435;BME280;45241;49.768;8.636;2023-02-17T06:34:58;100877.25;;;11.49;97.42
59435;BME280;45241;49.768;8.636;2023-02-17T06:37:24;100881.88;;;11.40;97.33
59435;BME280;45241;49.768;8.636;2023-02-17T06:39:49;100880.56;;;11.51;97.03
59435;BME280;45241;49.768;8.636;2023-02-17T06:42:14;100880.28;;;11.46;97.10
59435;BME280;45241;49.768;8.636;2023-02-17T06:44:40;100877.06;;;11.51;96.99
59435;BME280;45241;49.768;8.636;2023-02-17T06:47:05;100871.13;;;11.40;97.74
59435;BME280;45241;49.768;8.636;2023-02-17T06:49:30;100879.72;;;11.36;98.44
59435;BME280;45241;49.768;8.636;2023-02-17T06:51:55;100873.38;;;11.29;99.33
59435;BME280;45241;49.768;8.636;2023-02-17T06:54:21;100871.34;;;11.31;99.06
59435;BME280;45241;49.768;8.636;2023-02-17T06:56:46;100874.56;;;11.26;99.95
59435;BME280;45241;49.768;8.636;2023-02-17T06:59:11;100880.53;;;11.36;99.63
59435;BME280;45241;49.768;8.636;2023-02-17T07:01:37;100894.50;;;11.32;99.52
59435;BME280;45241;49.768;8.636;2023-02-17T07:04:03;100899.56;;;11.27;100.00
59435;BME280;45241;49.768;8.636;2023-02-17T07:06:28;100909.81;;;11.23;100.00
59435;BME280;45241;49.768;8.636;2023-02-17T07:08:54;100906.53;;;11.13;100.00
59435;BME280;45241;49.768;8.636;2023-02-17T07:11:19;100916.91;;;11.16;100.00
59435;BME280;45241;49.768;8.636;2023-02-17T07:13:45;100925.03;;;11.31;100.00
59435;BME280;45241;49.768;8.636;2023-02-17T07:16:12;100916.09;;;11.15;100.00
59435;BME280;45241;49.768;8.636;2023-02-17T07:18:38;100917.34;;;11.28;100.00
59435;BME280;45241;49.768;8.636;2023-02-17T07:21:05;100914.00;;;11.26;100.00
59435;BME280;45241;49.768;8.636;2023-02-17T07:23:31;100924.31;;;11.14;100.00
59435;BME280;45241;49.768;8.636;2023-02-17T07:26:01;100926.63;;;11.17;100.00
59435;BME280;45241;49.768;8.636;2023-02-17T07:28:27;100930.50;;;11.14;100.00
59435;BME280;45241;49.768;8.636;2023-02-17T07:30:52;100933.50;;;11.20;100.00
59435;BME280;45241;49.768;8.636;2023-02-17T07:33:17;100933.13;;;11.23;100.00
59435;BME280;45241;49.768;8.636;2023-02-17T07:35:43;100936.16;;;11.20;100.00
59435;BME280;45241;49.768;8.636;2023-02-17T07:38:09;100936.41;;;11.10;100.00
59435;BME280;45241;49.768;8.636;2023-02-17T07:40:34;100932.38;;;11.14;100.00
59435;BME280;45241;49.768;8.636;2023-02-17T07:43:00;100916.72;;;11.18;100.00
59435;BME280;45241;49.768;8.636;2023-02-17T07:45:25;100914.88;;;11.18;100.00
59435;BME280;45241;49.768;8.636;2023-02-17T07:47:51;100918.75;;;11.15;100.00
59435;BME280;45241;49.768;8.636;2023-02-17T07:50:16;100904.97;;;11.19;100.00
59435;BME280;45241;49.768;8.636;2023-02-17T07:52:41;100904.44;;;11.23;100.00
59435;BME280;45241;49.768;8.636;2023-02-17T07:55:07;100899.72;;;11.25;100.00
59435;BME280;45241;49.768;8.636;2023-02-17T07:57:32;100914.16;;;11.24;100.00
59435;BME280;45241;49.768;8.636;2023-02-17T07:59:57;100909.09;;;11.29;100.00
59435;BME280;45241;49.768;8.636;2023-02-17T08:02:23;100902.06;;;11.28;100.00
59435;BME280;45241;49.768;8.636;2023-02-17T08:04:48;100915.63;;;11.35;100.00
59435;BME280;45241;49.768;8.636;2023-02-17T08:07:13;100916.00;;;11.24;100.00
59435;BME280;45241;49.768;8.636;2023-02-17T08:09:38;100918.31;;;11.35;100.00
59435;BME280;45241;49.768;8.636;2023-02-17T08:12:22;100922.19;;;11.32;100.00
59435;BME280;45241;49.768;8.636;2023-02-17T08:15:09;100914.78;;;11.34;100.00
59435;BME280;45241;49.768;8.636;2023-02-17T08:17:34;100918.81;;;11.30;100.00
59435;BME280;45241;49.768;8.636;2023-02-17T08:20:00;100915.63;;;11.35;100.00
59435;BME280;45241;49.768;8.636;2023-02-17T08:22:26;100915.63;;;11.35;100.00
59435;BME280;45241;49.768;8.636;2023-02-17T08:24:51;100916.47;;;11.35;100.00
59435;BME280;45241;49.768;8.636;2023-02-17T08:27:17;100911.91;;;11.36;100.00
59435;BME280;45241;49.768;8.636;2023-02-17T08:29:43;100918.53;;;11.48;100.00
59435;BME280;45241;49.768;8.636;2023-02-17T08:32:09;100917.28;;;11.36;100.00
59435;BME280;45241;49.768;8.636;2023-02-17T08:34:34;100922.06;;;11.49;100.00
59435;BME280;45241;49.768;8.636;2023-02-17T08:37:01;100918.53;;;11.48;100.00
59435;BME280;45241;49.768;8.636;2023-02-17T08:39:27;100913.72;;;11.43;100.00
59435;BME280;45241;49.768;8.636;2023-02-17T08:41:53;100900.94;;;11.46;100.00
59435;BME280;45241;49.768;8.636;2023-02-17T08:44:19;100904.88;;;11.58;100.00
59435;BME280;45241;49.768;8.636;2023-02-17T08:46:46;100906.13;;;11.47;100.00
59435;BME280;45241;49.768;8.636;2023-02-17T08:49:14;100910.50;;;11.63;100.00
59435;BME280;45241;49.768;8.636;2023-02-17T08:51:39;100907.81;;;11.63;100.00
59435;BME280;45241;49.768;8.636;2023-02-17T08:54:05;100913.50;;;11.68;100.00
59435;BME280;45241;49.768;8.636;2023-02-17T08:56:31;100901.56;;;11.70;100.00
59435;BME280;45241;49.768;8.636;2023-02-17T08:58:57;100913.75;;;11.58;100.00
59435;BME280;45241;49.768;8.636;2023-02-17T09:01:24;100921.16;;;11.56;100.00
59435;BME280;45241;49.768;8.636;2023-02-17T09:03:51;100904.31;;;11.62;100.00
59435;BME280;45241;49.768;8.636;2023-02-17T09:06:17;100912.69;;;11.44;100.00
59435;BME280;45241;49.768;8.636;2023-02-17T09:08:43;100915.69;;;11.64;100.00
59435;BME280;45241;49.768;8.636;2023-02-17T09:11:09;100916.88;;;11.47;100.00
59435;BME280;45241;49.768;8.636;2023-02-17T09:13:35;100925.88;;;11.31;100.00
59435;BME280;45241;49.768;8.636;2023-02-17T09:16:01;100925.66;;;11.41;100.00
59435;BME280;45241;49.768;8.636;2023-02-17T09:18:26;100929.28;;;11.48;100.00
59435;BME280;45241;49.768;8.636;2023-02-17T09:20:51;100928.22;;;11.34;100.00
59435;BME280;45241;49.768;8.636;2023-02-17T09:23:21;100926.34;;;11.35;100.00
59435;BME280;45241;49.768;8.636;2023-02-17T09:25:46;100918.53;;;11.48;100.00
59435;BME280;45241;49.768;8.636;2023-02-17T09:28:11;100927.31;;;11.42;100.00
59435;BME280;45241;49.768;8.636;2023-02-17T09:30:38;100924.47;;;11.43;100.00
59435;BME280;45241;49.768;8.636;2023-02-17T09:33:04;100938.44;;;11.39;100.00
59435;BME280;45241;49.768;8.636;2023-02-17T09:35:29;100932.59;;;11.50;100.00
59435;BME280;45241;49.768;8.636;2023-02-17T09:37:55;100928.25;;;11.49;100.00
59435;BME280;45241;49.768;8.636;2023-02-17T09:40:35;100920.56;;;11.46;100.00
59435;BME280;45241;49.768;8.636;2023-02-17T09:43:02;100926.34;;;11.35;100.00
59435;BME280;45241;49.768;8.636;2023-02-17T09:45:32;100927.75;;;11.23;100.00
59435;BME280;45241;49.768;8.636;2023-02-17T09:48:02;100921.34;;;11.32;100.00
59435;BME280;45241;49.768;8.636;2023-02-17T09:50:42;100919.88;;;11.21;100.00
59435;BME280;45241;49.768;8.636;2023-02-17T09:53:30;100925.00;;;11.08;100.00
59435;BME280;45241;49.768;8.636;2023-02-17T09:56:02;100926.81;;;11.15;100.00
59435;BME280;45241;49.768;8.636;2023-02-17T09:58:42;100933.78;;;11.25;100.00
59435;BME280;45241;49.768;8.636;2023-02-17T10:01:16;100940.16;;;11.24;100.00
59435;BME280;45241;49.768;8.636;2023-02-17T10:03:45;100938.50;;;11.23;100.00
59435;BME280;45241;49.768;8.636;2023-02-17T10:06:15;100946.25;;;11.18;100.00
59435;BME280;45241;49.768;8.636;2023-02-17T10:08:54;100941.19;;;11.23;100.00
59435;BME280;45241;49.768;8.636;2023-02-17T10:13:55;100957.94;;;11.25;100.00
59435;BME280;45241;49.768;8.636;2023-02-17T10:16:27;100959.34;;;11.12;100.00
59435;BME280;45241;49.768;8.636;2023-02-17T10:19:03;100957.69;;;11.11;100.00
59435;BME280;45241;49.768;8.636;2023-02-17T10:21:38;100959.28;;;11.29;100.00
59435;BME280;45241;49.768;8.636;2023-02-17T10:24:06;100956.75;;;11.27;100.00
59435;BME280;45241;49.768;8.636;2023-02-17T10:29:47;100955.22;;;11.33;100.00
59435;BME280;45241;49.768;8.636;2023-02-17T10:32:25;100947.47;;;11.38;100.00
59435;BME280;45241;49.768;8.636;2023-02-17T10:35:11;100945.19;;;11.50;100.00
59435;BME280;45241;49.768;8.636;2023-02-17T10:37:49;100938.53;;;11.46;100.00
59435;BME280;45241;49.768;8.636;2023-02-17T10:40:19;100945.63;;;11.61;100.00
59435;BME280;45241;49.768;8.636;2023-02-17T10:42:48;100942.09;;;11.61;100.00
59435;BME280;45241;49.768;8.636;2023-02-17T10:47:40;100950.94;;;11.69;100.00
59435;BME280;45241;49.768;8.636;2023-02-17T10:50:19;100955.09;;;11.72;100.00
59435;BME280;45241;49.768;8.636;2023-02-17T10:52:45;100957.91;;;11.79;100.00
59435;BME280;45241;49.768;8.636;2023-02-17T10:58:13;100937.53;;;11.84;100.00
59435;BME280;45241;49.768;8.636;2023-02-17T11:00:40;100940.78;;;11.80;100.00
59435;BME280;45241;49.768;8.636;2023-02-17T11:03:20;100943.78;;;11.77;100.00
59435;BME280;45241;49.768;8.636;2023-02-17T11:08:34;100948.53;;;11.74;100.00
59435;BME280;45241;49.768;8.636;2023-02-17T11:11:04;100957.06;;;11.78;100.00
59435;BME280;45241;49.768;8.636;2023-02-17T11:13:34;100955.22;;;11.79;100.00
59435;BME280;45241;49.768;8.636;2023-02-17T11:16:01;100952.69;;;11.77;100.00
59435;BME280;45241;49.768;8.636;2023-02-17T11:18:29;100947.91;;;11.87;100.00
59435;BME280;45241;49.768;8.636;2023-02-17T11:21:07;100947.66;;;11.97;100.00
59435;BME280;45241;49.768;8.636;2023-02-17T11:23:33;100943.72;;;11.85;100.00
59435;BME280;45241;49.768;8.636;2023-02-17T11:26:02;100935.84;;;11.83;100.00
59435;BME280;45241;49.768;8.636;2023-02-17T11:28:32;100924.94;;;11.85;100.00
59435;BME280;45241;49.768;8.636;2023-02-17T11:30:58;100931.25;;;11.92;100.00
59435;BME280;45241;49.768;8.636;2023-02-17T11:33:38;100932.47;;;12.04;100.00
59435;BME280;45241;49.768;8.636;2023-02-17T11:36:05;100926.91;;;11.91;100.00
59435;BME280;45241;49.768;8.636;2023-02-17T11:38:41;100921.81;;;12.11;100.00
59435;BME280;45241;49.768;8.636;2023-02-17T11:41:07;100930.88;;;12.10;100.00
59435;BME280;45241;49.768;8.636;2023-02-17T11:43:34;100912.44;;;12.07;100.00
59435;BME280;45241;49.768;8.636;2023-02-17T11:46:23;100912.53;;;12.13;100.00
59435;BME280;45241;49.768;8.636;2023-02-17T11:51:50;100919.88;;;12.19;100.00
59435;BME280;45241;49.768;8.636;2023-02-17T11:54:25;100928.13;;;12.18;100.00
59435;BME280;45241;49.768;8.636;2023-02-17T11:57:10;100927.94;;;12.19;100.00
59435;BME280;45241;49.768;8.636;2023-02-17T11:59:46;100928.19;;;12.24;100.00
59435;BME280;45241;49.768;8.636;2023-02-17T12:08:22;100928.00;;;12.41;100.00
59435;BME280;45241;49.768;8.636;2023-02-17T12:11:08;100923.19;;;12.36;100.00
59435;BME280;45241;49.768;8.636;2023-02-17T12:16:45;100922.63;;;12.41;100.00
59435;BME280;45241;49.768;8.636;2023-02-17T12:22:24;100920.78;;;12.56;100.00
59435;BME280;45241;49.768;8.636;2023-02-17T12:25:23;100919.75;;;12.57;100.00
59435;BME280;45241;49.768;8.636;2023-02-17T12:28:25;100919.25;;;12.68;100.00
59435;BME280;45241;49.768;8.636;2023-02-17T12:33:44;100913.78;;;12.76;100.00
59435;BME280;45241;49.768;8.636;2023-02-17T12:36:16;100908.50;;;12.83;100.00
59435;BME280;45241;49.768;8.636;2023-02-17T12:39:09;100908.38;;;12.91;100.00
59435;BME280;45241;49.768;8.636;2023-02-17T12:41:40;100903.34;;;13.03;100.00
59435;BME280;45241;49.768;8.636;2023-02-17T12:44:14;100899.44;;;13.05;100.00
59435;BME280;45241;49.768;8.636;2023-02-17T12:46:43;100901.56;;;13.10;100.00
59435;BME280;45241;49.768;8.636;2023-02-17T12:49:15;100900.47;;;13.26;100.00
59435;BME280;45241;49.768;8.636;2023-02-17T12:51:49;100899.50;;;13.33;100.00
59435;BME280;45241;49.768;8.636;2023-02-17T12:54:36;100892.56;;;13.45;100.00
59435;BME280;45241;49.768;8.636;2023-02-17T12:57:09;100889.50;;;13.48;100.00
59435;BME280;45241;49.768;8.636;2023-02-17T12:59:41;100895.31;;;13.52;100.00
59435;BME280;45241;49.768;8.636;2023-02-17T13:02:15;100880.50;;;13.63;100.00
59435;BME280;45241;49.768;8.636;2023-02-17T13:04:44;100869.72;;;13.63;100.00
59435;BME280;45241;49.768;8.636;2023-02-17T13:07:36;100887.75;;;13.62;100.00
59435;BME280;45241;49.768;8.636;2023-02-17T13:10:05;100879.88;;;13.61;100.00
59435;BME280;45241;49.768;8.636;2023-02-17T13:12:36;100871.31;;;13.57;100.00
59435;BME280;45241;49.768;8.636;2023-02-17T13:15:24;100906.50;;;13.49;100.00
59435;BME280;45241;49.768;8.636;2023-02-17T13:17:58;100874.38;;;13.47;100.00
59435;BME280;45241;49.768;8.636;2023-02-17T13:23:32;100870.91;;;13.32;100.00
59435;BME280;45241;49.768;8.636;2023-02-17T13:26:41;100861.78;;;13.33;100.00
59435;BME280;45241;49.768;8.636;2023-02-17T13:28:49;100872.44;;;13.41;100.00
59435;BME280;45241;49.768;8.636;2023-02-17T13:31:21;100871.59;;;13.41;100.00
59435;BME280;45241;49.768;8.636;2023-02-17T13:33:53;100888.47;;;13.28;100.00
59435;BME280;45241;49.768;8.636;2023-02-17T13:36:35;100886.41;;;13.30;100.00
59435;BME280;45241;49.768;8.636;2023-02-17T13:39:03;100885.78;;;13.28;100.00
59435;BME280;45241;49.768;8.636;2023-02-17T13:41:33;100883.16;;;13.35;100.00
59435;BME280;45241;49.768;8.636;2023-02-17T13:46:59;100888.91;;;13.32;100.00
59435;BME280;45241;49.768;8.636;2023-02-17T13:49:27;100889.94;;;13.31;100.00
59435;BME280;45241;49.768;8.636;2023-02-17T13:51:53;100869.25;;;13.31;100.00
59435;BME280;45241;49.768;8.636;2023-02-17T13:54:21;100870.03;;;13.25;100.00
59435;BME280;45241;49.768;8.636;2023-02-17T13:56:51;100864.69;;;13.32;100.00